createdAt,value
2019-05-19T00:02:12.390Z,78.33
2019-05-19T00:04:41.809Z,82.17
2019-05-19T00:07:11.312Z,80.03
2019-05-19T00:09:40.737Z,87.92
2019-05-19T00:12:10.198Z,80.72
2019-05-19T00:14:39.918Z,91.85
2019-05-19T00:17:09.335Z,79.60
2019-05-19T00:19:38.776Z,82.75
2019-05-19T00:22:08.123Z,78.95
2019-05-19T00:24:37.438Z,82.25
2019-05-19T00:27:06.858Z,76.65
2019-05-19T00:29:36.203Z,71.87
2019-05-19T00:32:05.944Z,77.72
2019-05-19T00:34:35.261Z,87.45
2019-05-19T00:37:04.676Z,84.58
2019-05-19T00:39:34.002Z,69.00
2019-05-19T00:42:03.347Z,66.05
2019-05-19T00:44:32.775Z,76.00
2019-05-19T00:47:02.457Z,75.60
2019-05-19T00:49:40.871Z,70.97
2019-05-19T00:52:03.512Z,73.00
2019-05-19T00:54:33.118Z,69.92
2019-05-19T00:57:03.246Z,80.65
2019-05-19T00:59:33.435Z,83.75
2019-05-19T01:02:02.761Z,66.72
2019-05-19T01:04:32.207Z,66.95
2019-05-19T01:07:01.521Z,68.33
2019-05-19T01:09:30.855Z,71.95
2019-05-19T01:12:00.288Z,82.72
2019-05-19T01:14:29.711Z,89.03
2019-05-19T01:16:59.049Z,97.53
2019-05-19T01:19:28.375Z,93.15
2019-05-19T01:21:59.360Z,81.85
2019-05-19T01:24:28.692Z,90.12
2019-05-19T01:26:58.027Z,84.55
2019-05-19T01:29:27.463Z,86.12
2019-05-19T01:31:56.793Z,91.55
2019-05-19T01:34:26.232Z,96.60
2019-05-19T01:36:55.659Z,88.07
2019-05-19T01:39:25.093Z,69.40
2019-05-19T01:41:54.601Z,76.10
2019-05-19T01:44:23.936Z,71.15
2019-05-19T01:46:53.391Z,84.05
2019-05-19T01:49:22.724Z,78.78
2019-05-19T01:51:52.284Z,78.35
2019-05-19T01:54:21.780Z,75.85
2019-05-19T01:56:51.187Z,91.08
2019-05-19T01:59:20.505Z,82.92
2019-05-19T02:01:49.838Z,84.25
2019-05-19T02:04:19.246Z,70.83
2019-05-19T02:06:48.579Z,59.40
2019-05-19T02:09:18.008Z,74.58
2019-05-19T02:11:47.321Z,88.42
2019-05-19T02:14:16.652Z,102.47
2019-05-19T02:16:46.010Z,98.72
2019-05-19T02:19:15.325Z,95.60
2019-05-19T02:21:44.651Z,93.33
2019-05-19T02:24:14.106Z,123.65
2019-05-19T02:26:43.517Z,130.47
2019-05-19T02:29:12.860Z,121.67
2019-05-19T02:31:42.324Z,108.45
2019-05-19T02:34:11.661Z,123.70
2019-05-19T02:36:40.983Z,114.32
2019-05-19T02:39:10.435Z,113.08
2019-05-19T02:41:40.373Z,103.00
2019-05-19T02:44:09.778Z,108.07
2019-05-19T02:46:40.047Z,103.10
2019-05-19T02:49:10.459Z,113.45
2019-05-19T02:51:40.672Z,102.30
2019-05-19T02:54:10.121Z,121.37
2019-05-19T02:56:39.936Z,116.88
2019-05-19T02:59:09.436Z,131.70
2019-05-19T03:01:40.447Z,133.37
2019-05-19T03:04:09.868Z,124.05
2019-05-19T03:06:39.213Z,138.82
2019-05-19T03:09:08.654Z,133.93
2019-05-19T03:11:38.087Z,127.38
2019-05-19T03:14:07.424Z,119.70
2019-05-19T03:16:36.760Z,131.35
2019-05-19T03:19:06.180Z,138.60
2019-05-19T03:21:35.615Z,137.68
2019-05-19T03:24:04.981Z,125.78
2019-05-19T03:26:34.427Z,124.92
2019-05-19T03:29:03.844Z,114.85
2019-05-19T03:31:34.911Z,112.80
2019-05-19T03:34:05.030Z,122.75
2019-05-19T03:36:34.480Z,99.32
2019-05-19T03:39:05.581Z,104.72
2019-05-19T03:41:35.012Z,95.62
2019-05-19T03:44:04.389Z,112.08
2019-05-19T03:46:33.801Z,118.45
2019-05-19T03:49:03.222Z,114.42
2019-05-19T03:51:32.577Z,100.38
2019-05-19T03:54:02.007Z,122.65
2019-05-19T03:56:31.458Z,86.45
2019-05-19T04:01:43.401Z,133.37
2019-05-19T04:04:12.847Z,153.60
2019-05-19T04:06:42.180Z,148.32
2019-05-19T04:09:11.528Z,150.85
2019-05-19T04:11:40.973Z,137.82
2019-05-19T04:14:10.477Z,156.85
2019-05-19T04:16:40.119Z,153.72
2019-05-19T04:19:09.448Z,153.25
2019-05-19T04:21:48.657Z,171.35
2019-05-19T04:24:09.979Z,140.12
2019-05-19T04:26:39.400Z,100.40
2019-05-19T04:29:08.721Z,96.25
2019-05-19T04:31:38.037Z,113.10
2019-05-19T04:34:07.387Z,96.20
2019-05-19T04:36:36.812Z,82.90
2019-05-19T04:39:06.301Z,124.12
2019-05-19T04:41:35.709Z,95.05
2019-05-19T04:44:05.156Z,136.35
2019-05-19T04:46:34.508Z,153.50
2019-05-19T04:49:03.887Z,144.13
2019-05-19T04:51:33.332Z,125.53
2019-05-19T04:54:02.646Z,129.50
2019-05-19T04:56:31.992Z,152.10
2019-05-19T04:59:01.374Z,170.77
2019-05-19T05:01:30.727Z,175.55
2019-05-19T05:04:00.041Z,140.47
2019-05-19T05:06:29.373Z,159.05
2019-05-19T05:08:58.843Z,175.22
2019-05-19T05:11:28.161Z,171.95
2019-05-19T05:13:57.496Z,195.53
2019-05-19T05:16:26.933Z,194.40
2019-05-19T05:18:56.360Z,202.50
2019-05-19T05:21:25.664Z,206.17
2019-05-19T05:23:54.990Z,224.65
2019-05-19T05:26:24.312Z,202.75
2019-05-19T05:28:54.044Z,179.05
2019-05-19T05:31:23.460Z,212.72
2019-05-19T05:33:52.934Z,184.65
2019-05-19T05:36:22.337Z,171.87
2019-05-19T05:38:51.771Z,165.40
2019-05-19T05:41:21.235Z,172.05
2019-05-19T05:43:50.676Z,190.65
2019-05-19T05:46:20.120Z,182.05
2019-05-19T05:48:49.451Z,179.15
2019-05-19T05:51:18.892Z,165.43
2019-05-19T05:53:48.344Z,169.30
2019-05-19T05:56:17.670Z,144.43
2019-05-19T05:58:47.108Z,128.62
2019-05-19T06:01:16.462Z,108.30
2019-05-19T06:03:46.061Z,103.10
2019-05-19T06:06:15.507Z,81.00
2019-05-19T06:08:44.940Z,72.08
2019-05-19T06:11:14.253Z,63.20
2019-05-19T06:13:43.702Z,57.10
2019-05-19T06:16:13.108Z,55.17
2019-05-19T06:18:42.532Z,56.45
2019-05-19T06:21:11.885Z,53.52
2019-05-19T06:23:41.317Z,54.55
2019-05-19T06:26:10.737Z,55.65
2019-05-19T06:28:40.072Z,59.88
2019-05-19T06:31:09.421Z,60.33
2019-05-19T06:33:38.731Z,56.50
2019-05-19T06:36:08.144Z,54.15
2019-05-19T06:38:37.504Z,53.10
2019-05-19T06:41:06.840Z,52.03
2019-05-19T06:43:36.283Z,45.98
2019-05-19T06:46:05.611Z,44.63
2019-05-19T06:48:35.044Z,40.30
2019-05-19T06:51:04.461Z,38.02
2019-05-19T06:53:33.818Z,38.65
2019-05-19T06:56:03.143Z,39.33
2019-05-19T06:58:32.663Z,35.85
2019-05-19T07:01:02.070Z,36.93
2019-05-19T07:03:31.411Z,36.50
2019-05-19T07:06:00.715Z,37.10
2019-05-19T07:08:30.132Z,38.38
2019-05-19T07:10:59.567Z,37.35
2019-05-19T07:13:29.023Z,34.50
2019-05-19T07:15:58.352Z,35.30
2019-05-19T07:18:27.791Z,35.58
2019-05-19T07:20:59.009Z,32.60
2019-05-19T07:23:29.008Z,36.28
2019-05-19T07:25:58.640Z,33.13
2019-05-19T07:28:28.053Z,33.55
2019-05-19T07:30:57.395Z,31.12
2019-05-19T07:33:26.846Z,30.50
2019-05-19T07:35:56.312Z,31.90
2019-05-19T07:38:25.739Z,32.08
2019-05-19T07:40:55.157Z,29.18
2019-05-19T07:43:24.672Z,26.25
2019-05-19T07:45:54.088Z,27.00
2019-05-19T07:48:23.400Z,29.30
2019-05-19T07:50:52.747Z,24.72
2019-05-19T07:53:22.176Z,25.05
2019-05-19T07:55:51.581Z,22.27
2019-05-19T07:58:21.130Z,18.27
2019-05-19T08:00:50.553Z,22.58
2019-05-19T08:03:20.931Z,21.17
2019-05-19T08:05:50.395Z,18.62
2019-05-19T08:08:19.742Z,18.57
2019-05-19T08:10:49.063Z,17.95
2019-05-19T08:13:18.382Z,16.42
2019-05-19T08:15:48.755Z,15.28
2019-05-19T08:18:18.099Z,14.87
2019-05-19T08:20:47.535Z,17.05
2019-05-19T08:23:16.954Z,15.05
2019-05-19T08:25:46.366Z,15.72
2019-05-19T08:28:17.621Z,16.48
2019-05-19T08:30:46.934Z,15.50
2019-05-19T08:33:17.547Z,19.40
2019-05-19T08:35:47.976Z,17.37
2019-05-19T08:38:17.312Z,16.73
2019-05-19T08:40:46.675Z,14.90
2019-05-19T08:43:16.157Z,18.07
2019-05-19T08:45:45.594Z,14.85
2019-05-19T08:48:14.945Z,15.58
2019-05-19T08:50:45.253Z,17.12
2019-05-19T08:53:15.669Z,14.87
2019-05-19T08:55:50.910Z,13.68
2019-05-19T08:58:21.378Z,18.50
2019-05-19T09:00:53.710Z,19.42
2019-05-19T09:03:23.077Z,16.55
2019-05-19T09:08:39.984Z,14.50
2019-05-19T09:11:09.440Z,17.45
2019-05-19T09:13:38.866Z,15.05
2019-05-19T09:16:08.276Z,17.55
2019-05-19T09:18:37.975Z,14.47
2019-05-19T09:21:07.425Z,15.23
2019-05-19T09:23:36.729Z,13.78
2019-05-19T09:26:06.068Z,12.43
2019-05-19T09:28:35.397Z,12.05
2019-05-19T09:31:04.715Z,13.90
2019-05-19T09:33:34.171Z,12.82
2019-05-19T09:36:03.577Z,16.00
2019-05-19T09:38:32.924Z,12.78
2019-05-19T09:41:02.296Z,19.48
2019-05-19T09:43:31.719Z,12.93
2019-05-19T09:46:01.141Z,15.55
2019-05-19T09:48:30.549Z,13.98
2019-05-19T09:50:59.923Z,12.88
2019-05-19T09:53:29.340Z,12.88
2019-05-19T09:55:59.669Z,9.25
2019-05-19T09:58:29.105Z,10.98
2019-05-19T10:00:58.454Z,8.68
2019-05-19T10:03:27.867Z,8.05
2019-05-19T10:05:57.294Z,8.60
2019-05-19T10:08:30.485Z,11.10
2019-05-19T10:11:07.235Z,10.28
2019-05-19T10:13:37.835Z,9.10
2019-05-19T10:16:07.456Z,7.65
2019-05-19T10:18:36.768Z,8.28
2019-05-19T10:21:06.084Z,11.25
2019-05-19T10:23:35.520Z,8.75
2019-05-19T10:26:04.831Z,10.23
2019-05-19T10:28:34.148Z,10.78
2019-05-19T10:31:03.579Z,9.60
2019-05-19T10:33:32.984Z,8.18
2019-05-19T10:36:02.392Z,10.58
2019-05-19T10:38:31.805Z,8.95
2019-05-19T10:41:01.127Z,10.90
2019-05-19T10:43:30.436Z,9.33
2019-05-19T10:45:59.763Z,23.32
2019-05-19T10:48:29.963Z,10.10
2019-05-19T10:50:59.377Z,8.68
2019-05-19T10:53:28.711Z,9.30
2019-05-19T10:55:58.136Z,11.43
2019-05-19T10:58:27.474Z,11.10
2019-05-19T11:00:56.955Z,11.90
2019-05-19T11:03:26.303Z,6.20
2019-05-19T11:05:55.604Z,6.85
2019-05-19T11:08:25.010Z,9.03
2019-05-19T11:10:54.352Z,7.90
2019-05-19T11:13:23.662Z,6.03
2019-05-19T11:15:52.996Z,7.62
2019-05-19T11:18:22.317Z,8.53
2019-05-19T11:20:51.725Z,8.03
2019-05-19T11:23:21.229Z,5.42
2019-05-19T11:25:51.866Z,8.90
2019-05-19T11:28:21.484Z,6.58
2019-05-19T11:30:50.915Z,5.95
2019-05-19T11:33:20.257Z,5.80
2019-05-19T11:35:49.760Z,8.90
2019-05-19T11:38:19.072Z,6.22
2019-05-19T11:40:48.445Z,7.10
2019-05-19T11:43:17.743Z,7.15
2019-05-19T11:45:47.063Z,7.10
2019-05-19T11:48:16.478Z,6.72
2019-05-19T11:50:45.881Z,8.30
2019-05-19T11:53:15.297Z,5.78
2019-05-19T11:55:44.857Z,7.25
2019-05-19T11:58:14.168Z,6.47
2019-05-19T12:00:43.498Z,9.53
2019-05-19T12:03:12.900Z,12.60
2019-05-19T12:05:42.320Z,9.48
2019-05-19T12:08:11.744Z,7.70
2019-05-19T12:10:41.233Z,8.88
2019-05-19T12:13:11.597Z,11.12
2019-05-19T12:15:40.923Z,8.65
2019-05-19T12:18:11.345Z,8.18
2019-05-19T12:20:40.807Z,8.20
2019-05-19T12:23:10.178Z,10.98
2019-05-19T12:25:39.493Z,9.15
2019-05-19T12:28:08.945Z,8.58
2019-05-19T12:30:38.454Z,7.65
2019-05-19T12:33:07.933Z,19.20
2019-05-19T12:35:37.249Z,7.22
2019-05-19T12:38:06.694Z,5.70
2019-05-19T12:40:36.061Z,6.85
2019-05-19T12:43:05.588Z,5.83
2019-05-19T12:45:35.024Z,9.25
2019-05-19T12:48:04.444Z,6.17
2019-05-19T12:50:33.763Z,7.45
2019-05-19T12:53:03.075Z,6.12
2019-05-19T12:55:32.425Z,7.28
2019-05-19T12:58:01.850Z,7.17
2019-05-19T13:00:31.454Z,7.03
2019-05-19T13:03:00.912Z,7.75
2019-05-19T13:05:30.406Z,6.58
2019-05-19T13:07:59.857Z,6.05
2019-05-19T13:10:29.360Z,7.65
2019-05-19T13:12:58.790Z,7.22
2019-05-19T13:15:28.100Z,5.37
2019-05-19T13:17:57.524Z,6.50
2019-05-19T13:20:26.956Z,8.05
2019-05-19T13:22:56.384Z,6.45
2019-05-19T13:25:25.735Z,7.62
2019-05-19T13:27:55.042Z,7.42
2019-05-19T13:30:24.475Z,6.45
2019-05-19T13:32:53.907Z,6.83
2019-05-19T13:35:23.215Z,6.50
2019-05-19T13:37:52.539Z,7.45
2019-05-19T13:40:21.954Z,6.85
2019-05-19T13:42:51.361Z,6.42
2019-05-19T13:45:20.967Z,6.62
2019-05-19T13:47:50.384Z,10.30
2019-05-19T13:50:19.799Z,10.30
2019-05-19T13:52:51.191Z,8.73
2019-05-19T13:55:20.225Z,13.75
2019-05-19T13:57:49.671Z,10.23
2019-05-19T14:00:19.357Z,9.33
2019-05-19T14:02:48.799Z,7.37
2019-05-19T14:05:18.425Z,9.28
2019-05-19T14:07:47.842Z,9.58
2019-05-19T14:10:17.195Z,8.25
2019-05-19T14:12:48.578Z,6.90
2019-05-19T14:15:17.904Z,9.80
2019-05-19T14:17:47.352Z,7.50
2019-05-19T14:20:16.676Z,6.50
2019-05-19T14:22:46.098Z,7.05
2019-05-19T14:25:15.519Z,8.13
2019-05-19T14:27:44.975Z,7.67
2019-05-19T14:30:14.541Z,8.80
2019-05-19T14:32:43.956Z,6.40
2019-05-19T14:35:13.275Z,8.20
2019-05-19T14:37:42.621Z,6.70
2019-05-19T14:40:12.099Z,9.10
2019-05-19T14:42:46.132Z,9.88
2019-05-19T14:45:15.619Z,9.13
2019-05-19T14:47:45.064Z,4.42
2019-05-19T14:50:14.529Z,3.58
2019-05-19T14:52:43.884Z,7.92
2019-05-19T14:55:13.543Z,3.02
2019-05-19T14:57:45.240Z,5.03
2019-05-19T15:00:14.474Z,3.42
2019-05-19T15:02:43.776Z,4.65
2019-05-19T15:05:13.672Z,3.98
2019-05-19T15:07:43.052Z,5.00
2019-05-19T15:10:12.797Z,4.10
2019-05-19T15:12:42.317Z,3.55
2019-05-19T15:15:11.692Z,5.83
2019-05-19T15:17:41.001Z,7.12
2019-05-19T15:20:10.684Z,3.45
2019-05-19T15:22:40.171Z,3.70
2019-05-19T15:25:09.735Z,3.72
2019-05-19T15:27:39.045Z,4.85
2019-05-19T15:30:13.188Z,3.50
2019-05-19T15:32:39.757Z,3.77
2019-05-19T15:35:09.346Z,4.83
2019-05-19T15:37:38.821Z,4.55
2019-05-19T15:40:08.338Z,3.62
2019-05-19T15:42:37.836Z,3.65
2019-05-19T15:45:07.568Z,4.10
2019-05-19T15:47:36.992Z,5.08
2019-05-19T15:50:06.982Z,4.95
2019-05-19T15:52:36.413Z,4.87
2019-05-19T15:55:05.898Z,3.22
2019-05-19T15:57:35.347Z,8.15
2019-05-19T16:00:06.214Z,3.90
2019-05-19T16:02:35.764Z,3.95
2019-05-19T16:05:06.130Z,4.25
2019-05-19T16:07:35.593Z,5.72
2019-05-19T16:10:08.486Z,4.87
2019-05-19T16:12:38.234Z,5.50
2019-05-19T16:15:07.817Z,3.33
2019-05-19T16:17:37.150Z,2.95
2019-05-19T16:20:06.525Z,3.58
2019-05-19T16:22:35.998Z,4.28
2019-05-19T17:10:41.812Z,4.75
2019-05-19T17:13:11.127Z,2.50
2019-05-19T17:15:40.528Z,2.60
2019-05-19T17:18:09.966Z,3.22
2019-05-19T17:20:39.415Z,7.05
2019-05-19T17:23:08.857Z,3.40
2019-05-19T17:25:38.375Z,4.53
2019-05-19T17:28:07.785Z,4.12
2019-05-19T17:30:37.100Z,2.35
2019-05-19T17:33:06.455Z,2.75
2019-05-19T17:35:35.868Z,2.33
2019-05-19T17:38:05.200Z,9.80
2019-05-19T17:40:34.667Z,3.65
2019-05-19T17:43:04.043Z,3.12
2019-05-19T17:45:33.359Z,3.75
2019-05-19T17:48:10.122Z,3.20
2019-05-19T17:50:35.022Z,3.40
2019-05-19T17:53:04.516Z,2.67
2019-05-19T17:55:34.785Z,6.85
2019-05-19T17:58:04.183Z,2.27
2019-05-19T18:00:34.697Z,2.33
2019-05-19T18:03:05.776Z,2.65
2019-05-19T18:05:35.189Z,2.60
2019-05-19T18:08:04.996Z,2.47
2019-05-19T18:10:34.339Z,3.30
2019-05-19T18:13:04.879Z,2.95
2019-05-19T18:15:34.693Z,2.40
2019-05-19T18:18:04.061Z,1.67
2019-05-19T18:20:33.390Z,6.22
2019-05-19T18:23:02.821Z,3.33
2019-05-19T18:25:32.281Z,2.00
2019-05-19T18:28:01.609Z,1.95
2019-05-19T18:30:31.019Z,2.35
2019-05-19T18:33:00.364Z,4.03
2019-05-19T18:35:29.671Z,2.20
2019-05-19T18:37:58.977Z,4.05
2019-05-19T18:40:28.403Z,2.85
2019-05-19T18:42:57.812Z,5.78
2019-05-19T18:45:27.266Z,2.17
2019-05-19T18:47:56.693Z,1.45
2019-05-19T18:50:26.293Z,6.50
2019-05-19T18:52:55.609Z,2.08
2019-05-19T18:55:25.047Z,3.02
2019-05-19T18:57:54.489Z,4.03
2019-05-19T19:00:34.537Z,4.65
2019-05-19T19:03:04.780Z,2.17
2019-05-19T19:05:34.332Z,2.60
2019-05-19T19:08:03.702Z,1.85
2019-05-19T19:10:33.048Z,2.37
2019-05-19T19:13:02.392Z,3.00
2019-05-19T19:15:31.939Z,2.87
2019-05-19T19:18:01.498Z,4.72
2019-05-19T19:20:31.060Z,2.90
2019-05-19T19:23:00.504Z,3.98
2019-05-19T19:25:29.893Z,3.70
2019-05-19T19:27:59.379Z,6.25
2019-05-19T19:30:28.851Z,2.92
2019-05-19T19:32:58.374Z,3.58
2019-05-19T19:35:36.955Z,3.58
2019-05-19T19:37:58.833Z,2.52
2019-05-19T19:40:29.138Z,2.37
2019-05-19T19:43:00.286Z,3.30
2019-05-19T19:45:29.707Z,3.00
2019-05-19T19:47:59.012Z,4.08
2019-05-19T19:50:29.575Z,4.25
2019-05-19T19:52:58.884Z,3.85
2019-05-19T19:55:28.300Z,4.20
2019-05-19T19:57:57.611Z,3.42
2019-05-19T20:00:45.491Z,5.75
2019-05-19T20:03:14.872Z,3.98
2019-05-19T20:05:44.244Z,4.20
2019-05-19T20:08:13.672Z,4.42
2019-05-19T20:10:44.203Z,5.10
2019-05-19T20:13:13.665Z,5.78
2019-05-19T20:15:43.054Z,4.03
2019-05-19T20:18:12.368Z,3.85
2019-05-19T20:20:41.664Z,4.60
2019-05-19T20:23:10.991Z,5.42
2019-05-19T20:25:40.393Z,5.20
2019-05-19T20:28:10.108Z,4.92
2019-05-19T20:30:39.520Z,5.85
2019-05-19T20:33:08.945Z,5.20
2019-05-19T20:35:38.287Z,9.75
2019-05-19T20:38:07.689Z,6.20
2019-05-19T20:40:37.321Z,8.03
2019-05-19T20:43:06.757Z,5.03
2019-05-19T20:45:37.284Z,5.35
2019-05-19T20:48:06.701Z,6.33
2019-05-19T20:50:36.181Z,4.80
2019-05-19T20:53:06.928Z,5.62
2019-05-19T20:55:36.769Z,6.95
2019-05-19T20:58:06.898Z,5.45
2019-05-19T21:00:49.548Z,6.12
2019-05-19T21:03:07.629Z,6.22
2019-05-19T21:05:36.948Z,4.87
2019-05-19T21:08:06.271Z,5.60
2019-05-19T21:10:35.762Z,6.92
2019-05-19T21:13:05.103Z,6.53
2019-05-19T21:15:34.491Z,8.05
2019-05-19T21:18:04.063Z,5.75
2019-05-19T21:20:33.469Z,7.85
2019-05-19T21:23:02.920Z,6.10
2019-05-19T21:25:32.236Z,6.60
2019-05-19T21:28:01.577Z,5.90
2019-05-19T21:30:30.883Z,5.85
2019-05-19T21:33:00.209Z,5.83
2019-05-19T21:35:29.637Z,5.20
2019-05-19T21:37:58.949Z,5.67
2019-05-19T21:40:28.280Z,5.17
2019-05-19T21:42:57.595Z,8.88
2019-05-19T21:45:26.933Z,5.22
2019-05-19T21:47:56.328Z,6.03
2019-05-19T21:50:26.727Z,8.98
2019-05-19T21:52:56.167Z,5.53
2019-05-19T21:55:25.584Z,8.20
2019-05-19T21:57:54.885Z,6.83
2019-05-19T22:00:25.848Z,6.53
2019-05-19T22:02:55.179Z,7.62
2019-05-19T22:05:24.508Z,7.17
2019-05-19T22:08:04.494Z,7.33
2019-05-19T22:10:33.822Z,6.85
2019-05-19T22:13:03.148Z,8.40
2019-05-19T22:15:32.468Z,9.28
2019-05-19T22:18:01.887Z,8.35
2019-05-19T22:20:31.269Z,7.50
2019-05-19T22:23:00.645Z,7.20
2019-05-19T22:25:30.079Z,6.62
2019-05-19T22:27:59.492Z,7.90
2019-05-19T22:30:28.828Z,7.10
2019-05-19T22:32:58.158Z,7.37
2019-05-19T22:35:27.564Z,9.15
2019-05-19T22:37:56.980Z,9.88
2019-05-19T22:40:26.417Z,8.50
2019-05-19T22:42:55.739Z,7.12
2019-05-19T22:45:25.082Z,9.90
2019-05-19T22:47:54.520Z,10.18
2019-05-19T22:50:24.033Z,7.37
2019-05-19T22:52:53.484Z,9.08
2019-05-19T22:55:22.888Z,8.20
2019-05-19T22:57:53.454Z,10.93
2019-05-19T23:00:23.035Z,7.05
2019-05-19T23:02:52.462Z,9.28
2019-05-19T23:05:21.783Z,8.45
2019-05-19T23:07:51.108Z,9.80
2019-05-19T23:10:20.491Z,10.28
2019-05-19T23:12:49.823Z,8.70
2019-05-19T23:15:20.777Z,7.53
2019-05-19T23:17:50.224Z,9.78
2019-05-19T23:20:19.608Z,8.70
2019-05-19T23:22:48.932Z,10.82
2019-05-19T23:25:18.263Z,9.13
2019-05-19T23:27:47.711Z,9.40
2019-05-19T23:30:17.176Z,8.28
2019-05-19T23:32:46.612Z,8.20
2019-05-19T23:35:16.043Z,8.38
2019-05-19T23:37:45.390Z,8.70
2019-05-19T23:40:14.815Z,8.88
2019-05-19T23:42:44.230Z,8.10
2019-05-19T23:45:13.924Z,8.53
2019-05-19T23:47:43.339Z,9.88
2019-05-19T23:50:12.768Z,8.40
2019-05-19T23:52:42.073Z,11.03
2019-05-19T23:55:11.460Z,13.03
2019-05-19T23:57:40.789Z,9.13
